createdAt,value
2023-05-07T00:00:43.520Z,87.76
2023-05-07T00:03:12.477Z,81.75
2023-05-07T00:05:42.535Z,80.62
2023-05-07T00:08:10.304Z,82.66
2023-05-07T00:10:37.992Z,87.45
2023-05-07T00:13:05.940Z,82.36
2023-05-07T00:15:33.676Z,80.43
2023-05-07T00:18:01.498Z,82.51
2023-05-07T00:20:29.255Z,83.78
2023-05-07T00:22:58.347Z,81.94
2023-05-07T00:25:26.064Z,81.87
2023-05-07T00:27:54.021Z,86.21
2023-05-07T00:30:21.827Z,85.58
2023-05-07T00:32:50.152Z,83.00
2023-05-07T00:35:17.911Z,85.16
2023-05-07T00:37:45.711Z,89.70
2023-05-07T00:40:15.474Z,88.41
2023-05-07T00:42:47.934Z,95.65
2023-05-07T00:45:15.944Z,89.76
2023-05-07T00:47:43.893Z,84.99
2023-05-07T00:50:13.710Z,85.21
2023-05-07T00:52:42.742Z,83.73
2023-05-07T00:55:10.889Z,83.85
2023-05-07T00:57:42.096Z,81.68
2023-05-07T01:00:11.553Z,82.93
2023-05-07T01:02:40.398Z,83.22
2023-05-07T01:05:10.438Z,87.48
2023-05-07T01:07:39.335Z,91.75
2023-05-07T01:10:08.144Z,86.67
2023-05-07T01:12:36.809Z,86.09
2023-05-07T01:15:07.771Z,82.81
2023-05-07T01:17:36.051Z,84.53
2023-05-07T01:20:05.894Z,85.06
2023-05-07T01:22:35.726Z,92.42
2023-05-07T01:25:03.702Z,98.83
2023-05-07T01:27:31.458Z,95.88
2023-05-07T01:30:20.795Z,94.12
2023-05-07T01:33:01.582Z,94.57
2023-05-07T01:35:34.332Z,95.45
2023-05-07T01:38:05.730Z,91.11
2023-05-07T01:40:33.665Z,93.98
2023-05-07T01:43:01.416Z,93.04
2023-05-07T01:45:29.329Z,93.11
2023-05-07T01:47:57.546Z,99.56
2023-05-07T01:50:25.572Z,100.00
2023-05-07T01:52:53.515Z,100.00
2023-05-07T01:55:22.690Z,100.00
2023-05-07T01:57:50.328Z,95.93
2023-05-07T02:00:18.602Z,93.41
2023-05-07T02:02:46.482Z,95.22
2023-05-07T02:05:14.216Z,91.87
2023-05-07T02:07:41.912Z,88.81
2023-05-07T02:10:30.903Z,91.19
2023-05-07T02:12:58.690Z,93.01
2023-05-07T02:15:26.816Z,91.22
2023-05-07T02:18:02.224Z,89.25
2023-05-07T02:20:30.452Z,88.85
2023-05-07T02:22:58.334Z,93.00
2023-05-07T02:25:26.051Z,89.93
2023-05-07T02:27:55.629Z,92.98
2023-05-07T02:30:23.325Z,92.67
2023-05-07T02:32:51.162Z,92.48
2023-05-07T02:35:19.121Z,89.54
2023-05-07T02:37:46.813Z,91.53
2023-05-07T02:40:15.030Z,96.60
2023-05-07T02:42:42.747Z,96.43
2023-05-07T02:45:12.699Z,98.17
2023-05-07T02:47:40.380Z,94.21
2023-05-07T02:50:09.977Z,96.07
2023-05-07T02:52:38.171Z,90.43
2023-05-07T02:55:06.763Z,95.08
2023-05-07T02:57:34.466Z,91.85
2023-05-07T03:00:02.534Z,95.28
2023-05-07T03:02:31.774Z,95.89
2023-05-07T03:04:59.664Z,96.83
2023-05-07T03:07:27.333Z,93.35
2023-05-07T03:09:55.232Z,98.19
2023-05-07T03:12:23.158Z,99.90
2023-05-07T03:14:50.830Z,98.26
2023-05-07T03:17:18.501Z,97.46
2023-05-07T03:19:47.557Z,94.98
2023-05-07T03:22:15.360Z,91.50
2023-05-07T03:24:43.059Z,92.73
2023-05-07T03:27:10.832Z,96.25
2023-05-07T03:29:38.938Z,94.94
2023-05-07T03:32:06.971Z,93.74
2023-05-07T03:34:34.807Z,91.57
2023-05-07T03:37:03.886Z,90.82
2023-05-07T03:39:31.678Z,87.29
2023-05-07T03:41:59.946Z,92.40
2023-05-07T03:44:27.840Z,94.31
2023-05-07T03:46:56.385Z,89.22
2023-05-07T03:49:24.160Z,91.06
2023-05-07T03:51:51.884Z,88.81
2023-05-07T03:54:20.986Z,88.41
2023-05-07T03:56:48.666Z,89.51
2023-05-07T03:59:16.375Z,90.05
2023-05-07T04:01:44.384Z,89.42
2023-05-07T04:04:12.212Z,90.77
2023-05-07T04:06:39.924Z,95.00
2023-05-07T04:09:07.759Z,93.38
2023-05-07T04:11:38.261Z,87.75
2023-05-07T04:14:06.292Z,89.19
2023-05-07T04:16:34.095Z,88.87
2023-05-07T04:19:01.761Z,84.24
2023-05-07T04:21:29.533Z,86.75
2023-05-07T04:23:58.044Z,86.33
2023-05-07T04:26:25.729Z,89.02
2023-05-07T04:28:54.849Z,87.20
2023-05-07T04:31:22.994Z,91.12
2023-05-07T04:33:51.715Z,89.15
2023-05-07T04:36:19.948Z,90.56
2023-05-07T04:38:47.648Z,86.44
2023-05-07T04:41:16.149Z,86.14
2023-05-07T04:43:44.045Z,86.76
2023-05-07T04:46:13.248Z,86.11
2023-05-07T04:48:40.998Z,87.87
2023-05-07T04:51:08.693Z,90.26
2023-05-07T04:53:36.440Z,92.56
2023-05-07T04:56:04.405Z,91.03
2023-05-07T04:58:33.056Z,88.65
2023-05-07T05:01:01.457Z,87.15
2023-05-07T05:03:31.190Z,89.59
2023-05-07T05:06:00.423Z,90.35
2023-05-07T05:08:28.208Z,92.30
2023-05-07T05:10:55.896Z,89.66
2023-05-07T05:13:23.643Z,95.55
2023-05-07T05:15:51.958Z,87.23
2023-05-07T05:18:19.894Z,91.94
2023-05-07T05:20:48.965Z,89.17
2023-05-07T05:23:16.642Z,84.66
2023-05-07T05:25:44.275Z,82.99
2023-05-07T05:28:11.921Z,86.35
2023-05-07T05:30:39.564Z,82.48
2023-05-07T05:36:29.106Z,85.26
2023-05-07T05:38:57.418Z,80.28
2023-05-07T05:41:25.106Z,88.70
2023-05-07T05:43:52.733Z,91.11
2023-05-07T05:46:20.503Z,89.61
2023-05-07T05:48:48.263Z,92.09
2023-05-07T05:51:15.885Z,93.54
2023-05-07T05:53:44.976Z,91.12
2023-05-07T05:56:12.679Z,88.49
2023-05-07T05:58:40.348Z,86.48
2023-05-07T06:01:08.276Z,87.43
2023-05-07T06:03:35.918Z,86.12
2023-05-07T06:06:03.723Z,82.93
2023-05-07T06:08:31.927Z,88.68
2023-05-07T06:11:01.521Z,84.00
2023-05-07T06:13:29.298Z,88.38
2023-05-07T06:15:56.970Z,87.93
2023-05-07T06:18:25.018Z,85.27
2023-05-07T06:20:53.931Z,79.10
2023-05-07T06:23:21.568Z,80.97
2023-05-07T06:25:50.948Z,80.86
2023-05-07T06:28:20.207Z,81.87
2023-05-07T06:30:48.280Z,79.68
2023-05-07T06:33:15.970Z,80.68
2023-05-07T06:35:43.913Z,81.29
2023-05-07T06:38:12.057Z,74.95
2023-05-07T06:40:39.694Z,78.34
2023-05-07T06:43:07.366Z,83.39
2023-05-07T06:45:36.524Z,78.74
2023-05-07T06:48:04.624Z,80.64
2023-05-07T06:50:32.361Z,84.25
2023-05-07T06:53:00.132Z,83.76
2023-05-07T06:55:27.858Z,81.76
2023-05-07T06:57:55.480Z,78.52
2023-05-07T07:00:23.237Z,75.96
2023-05-07T07:02:52.302Z,74.82
2023-05-07T07:05:20.409Z,71.68
2023-05-07T07:07:53.573Z,73.03
2023-05-07T07:10:21.423Z,77.09
2023-05-07T07:12:49.156Z,78.20
2023-05-07T07:15:17.072Z,71.36
2023-05-07T07:17:44.721Z,70.69
2023-05-07T07:20:14.288Z,78.88
2023-05-07T07:22:48.558Z,70.92
2023-05-07T07:25:16.247Z,74.77
2023-05-07T07:27:43.926Z,70.28
2023-05-07T07:30:12.227Z,73.64
2023-05-07T07:32:40.122Z,68.81
2023-05-07T07:35:09.224Z,66.41
2023-05-07T07:37:38.343Z,68.83
2023-05-07T07:40:06.825Z,68.41
2023-05-07T07:42:34.580Z,67.98
2023-05-07T07:45:02.274Z,62.37
2023-05-07T07:47:30.178Z,67.32
2023-05-07T07:50:00.241Z,72.76
2023-05-07T07:52:27.932Z,70.36
2023-05-07T07:54:57.081Z,71.45
2023-05-07T07:57:24.821Z,67.19
2023-05-07T07:59:52.918Z,65.54
2023-05-07T08:02:20.718Z,60.83
2023-05-07T08:04:48.718Z,65.24
2023-05-07T08:07:16.517Z,63.08
2023-05-07T08:09:44.469Z,61.91
2023-05-07T08:12:13.759Z,62.17
2023-05-07T08:14:41.553Z,63.27
2023-05-07T08:17:10.822Z,64.87
2023-05-07T08:19:38.814Z,61.89
2023-05-07T08:22:06.744Z,60.96
2023-05-07T08:27:21.605Z,60.97
2023-05-07T08:29:49.882Z,61.89
2023-05-07T08:32:17.592Z,64.58
2023-05-07T08:34:45.313Z,60.54
2023-05-07T08:37:21.007Z,62.16
2023-05-07T08:39:48.745Z,61.18
2023-05-07T08:42:18.838Z,60.51
2023-05-07T08:44:49.034Z,61.80
2023-05-07T08:47:17.047Z,59.20
2023-05-07T08:49:44.814Z,56.99
2023-05-07T08:52:14.230Z,59.02
2023-05-07T08:54:42.251Z,59.15
2023-05-07T08:57:10.276Z,61.78
2023-05-07T08:59:38.046Z,62.13
2023-05-07T09:02:10.024Z,59.38
2023-05-07T09:04:37.839Z,55.54
2023-05-07T09:07:06.606Z,58.31
2023-05-07T09:09:34.643Z,58.15
2023-05-07T09:12:03.151Z,57.17
2023-05-07T09:14:31.206Z,58.37
2023-05-07T09:16:58.935Z,56.35
2023-05-07T09:19:28.677Z,56.93
2023-05-07T09:22:02.798Z,56.06
2023-05-07T09:24:35.180Z,56.76
2023-05-07T09:27:03.621Z,57.70
2023-05-07T09:29:36.150Z,53.78
2023-05-07T09:32:04.979Z,56.02
2023-05-07T09:34:34.606Z,54.49
2023-05-07T09:37:03.100Z,56.83
2023-05-07T09:39:40.899Z,57.28
2023-05-07T09:42:08.646Z,58.89
2023-05-07T09:44:57.704Z,55.09
2023-05-07T09:47:26.582Z,59.10
2023-05-07T09:49:59.776Z,55.63
2023-05-07T09:52:29.712Z,56.11
2023-05-07T09:55:00.267Z,58.28
2023-05-07T09:57:28.384Z,56.44
2023-05-07T09:59:56.676Z,52.46
2023-05-07T10:02:25.967Z,55.08
2023-05-07T10:05:02.928Z,56.10
2023-05-07T10:07:30.826Z,55.40
2023-05-07T10:09:59.543Z,51.75
2023-05-07T10:12:27.434Z,56.14
2023-05-07T10:14:55.202Z,56.68
2023-05-07T10:17:23.032Z,52.76
2023-05-07T10:19:51.556Z,51.97
2023-05-07T10:22:21.698Z,55.24
2023-05-07T10:24:51.214Z,53.63
2023-05-07T10:27:19.532Z,53.42
2023-05-07T10:30:00.784Z,55.29
2023-05-07T10:32:37.749Z,53.74
2023-05-07T10:35:10.906Z,54.83
2023-05-07T10:37:40.154Z,53.04
2023-05-07T10:40:09.204Z,53.63
2023-05-07T10:42:37.249Z,50.90
2023-05-07T10:45:15.234Z,52.79
2023-05-07T10:50:44.757Z,51.76
2023-05-07T10:53:29.357Z,51.53
2023-05-07T10:56:28.931Z,51.90
2023-05-07T10:58:56.636Z,52.15
2023-05-07T11:01:53.132Z,49.57
2023-05-07T11:04:25.776Z,50.10
2023-05-07T11:07:28.141Z,50.62
2023-05-07T11:09:59.533Z,50.39
2023-05-07T11:12:55.520Z,52.48
2023-05-07T11:15:40.012Z,51.29
2023-05-07T11:18:07.936Z,50.32
2023-05-07T11:20:50.031Z,49.68
2023-05-07T11:23:59.489Z,51.11
2023-05-07T11:26:29.713Z,49.21
2023-05-07T11:29:13.305Z,48.56
2023-05-07T11:31:41.233Z,47.91
2023-05-07T11:34:09.024Z,55.85
2023-05-07T11:36:36.791Z,54.20
2023-05-07T11:39:04.719Z,52.17
2023-05-07T11:41:38.443Z,52.62
2023-05-07T11:44:06.401Z,51.75
2023-05-07T11:46:34.404Z,50.08
2023-05-07T11:49:02.847Z,48.57
2023-05-07T11:51:30.969Z,47.01
2023-05-07T11:53:58.650Z,48.33
2023-05-07T11:56:26.548Z,50.10
2023-05-07T11:58:56.000Z,49.28
2023-05-07T12:01:23.687Z,48.37
2023-05-07T12:03:51.425Z,49.17
2023-05-07T12:06:20.084Z,48.94
2023-05-07T12:08:48.702Z,51.20
2023-05-07T12:11:19.028Z,47.76
2023-05-07T12:14:00.432Z,48.46
2023-05-07T12:16:28.597Z,47.02
2023-05-07T12:18:57.042Z,47.95
2023-05-07T12:21:26.207Z,47.49
2023-05-07T12:23:53.948Z,46.52
2023-05-07T12:26:22.748Z,47.01
2023-05-07T12:28:50.494Z,45.49
2023-05-07T12:31:19.929Z,45.10
2023-05-07T12:33:47.617Z,46.06
2023-05-07T12:36:15.570Z,46.04
2023-05-07T12:38:43.263Z,40.46
2023-05-07T12:41:13.371Z,42.08
2023-05-07T12:43:41.298Z,44.56
2023-05-07T12:46:09.845Z,44.15
2023-05-07T12:48:41.060Z,44.03
2023-05-07T12:51:11.235Z,42.39
2023-05-07T12:53:42.315Z,43.46
2023-05-07T12:56:09.994Z,40.12
2023-05-07T12:58:38.126Z,43.33
2023-05-07T13:01:07.718Z,40.70
2023-05-07T13:03:37.127Z,40.95
2023-05-07T13:06:07.800Z,41.51
2023-05-07T13:08:37.358Z,41.23
2023-05-07T13:11:06.443Z,39.30
2023-05-07T13:13:34.963Z,41.64
2023-05-07T13:16:03.148Z,40.90
2023-05-07T13:18:32.652Z,40.63
2023-05-07T13:23:39.604Z,41.59
2023-05-07T13:26:25.026Z,41.36
2023-05-07T13:28:54.156Z,39.99
2023-05-07T13:31:22.083Z,39.18
2023-05-07T13:33:49.786Z,41.58
2023-05-07T13:36:17.696Z,40.23
2023-05-07T13:38:47.493Z,39.09
2023-05-07T13:41:15.822Z,39.76
2023-05-07T13:43:43.489Z,41.13
2023-05-07T13:46:11.295Z,40.43
2023-05-07T13:48:38.995Z,40.04
2023-05-07T13:51:06.745Z,41.66
2023-05-07T13:53:34.406Z,39.12
2023-05-07T13:56:05.585Z,39.21
2023-05-07T13:58:33.569Z,39.82
2023-05-07T14:01:01.633Z,39.35
2023-05-07T14:03:29.398Z,37.64
2023-05-07T14:05:58.810Z,40.64
2023-05-07T14:08:26.757Z,40.45
2023-05-07T14:10:54.348Z,40.87
2023-05-07T14:13:23.492Z,42.15
2023-05-07T14:15:51.454Z,43.31
2023-05-07T14:18:19.101Z,45.32
2023-05-07T14:20:48.590Z,45.81
2023-05-07T14:23:18.502Z,47.35
2023-05-07T14:25:48.646Z,47.49
2023-05-07T14:28:16.396Z,50.75
2023-05-07T14:30:45.465Z,47.05
2023-05-07T14:33:13.263Z,46.16
2023-05-07T14:35:40.903Z,47.84
2023-05-07T14:38:10.450Z,48.77
2023-05-07T14:40:38.383Z,45.39
2023-05-07T14:43:06.183Z,47.37
2023-05-07T14:45:33.952Z,48.14
2023-05-07T14:48:03.201Z,48.55
2023-05-07T14:50:30.897Z,46.95
2023-05-07T14:52:58.786Z,46.05
2023-05-07T14:55:26.515Z,48.08
2023-05-07T14:57:54.177Z,47.49
2023-05-07T15:00:22.368Z,49.88
2023-05-07T15:02:50.213Z,48.70
2023-05-07T15:05:20.325Z,47.58
2023-05-07T15:07:48.323Z,46.89
2023-05-07T15:10:16.844Z,47.61
2023-05-07T15:12:44.573Z,47.18
2023-05-07T15:15:13.199Z,49.80
2023-05-07T15:17:41.386Z,49.40
2023-05-07T15:20:09.859Z,49.95
2023-05-07T15:22:40.053Z,49.87
2023-05-07T15:25:10.412Z,48.17
2023-05-07T15:27:38.513Z,47.46
2023-05-07T15:30:07.731Z,50.48
2023-05-07T15:32:35.523Z,50.31
2023-05-07T15:35:03.404Z,48.56
2023-05-07T15:37:32.486Z,49.29
2023-05-07T15:40:03.326Z,49.26
2023-05-07T15:42:31.109Z,51.30
2023-05-07T15:45:01.330Z,52.25
2023-05-07T15:47:29.175Z,52.83
2023-05-07T15:49:56.879Z,52.34
2023-05-07T15:52:24.628Z,50.57
2023-05-07T15:54:52.281Z,53.02
2023-05-07T15:57:22.352Z,52.67
2023-05-07T15:59:50.187Z,52.54
2023-05-07T16:02:18.206Z,53.07
2023-05-07T16:04:45.879Z,53.40
2023-05-07T16:07:13.833Z,53.46
2023-05-07T16:09:41.692Z,55.51
2023-05-07T16:12:09.351Z,51.56
2023-05-07T16:14:38.524Z,53.77
2023-05-07T16:17:06.374Z,53.46
2023-05-07T16:19:34.296Z,54.61
2023-05-07T16:22:02.017Z,55.02
2023-05-07T16:24:29.737Z,54.53
2023-05-07T16:29:32.636Z,55.61
2023-05-07T16:32:01.797Z,54.30
2023-05-07T16:34:30.942Z,52.32
2023-05-07T16:36:59.950Z,53.88
2023-05-07T16:39:27.678Z,54.82
2023-05-07T16:41:55.405Z,51.21
2023-05-07T16:44:23.474Z,53.63
2023-05-07T16:46:52.040Z,54.48
2023-05-07T16:49:21.174Z,53.18
2023-05-07T16:51:48.842Z,56.77
2023-05-07T16:54:32.393Z,57.25
2023-05-07T16:57:00.184Z,57.51
2023-05-07T16:59:31.481Z,58.72
2023-05-07T17:01:59.436Z,56.76
2023-05-07T17:04:29.856Z,54.55
2023-05-07T17:06:57.895Z,55.91
2023-05-07T17:09:25.683Z,57.18
2023-05-07T17:11:53.371Z,56.91
2023-05-07T17:14:21.024Z,59.13
2023-05-07T17:17:04.056Z,58.92
2023-05-07T17:19:33.322Z,61.40
2023-05-07T17:22:00.993Z,59.83
2023-05-07T17:24:28.612Z,58.01
2023-05-07T17:26:56.288Z,55.08
2023-05-07T17:29:23.906Z,57.43
2023-05-07T17:31:51.699Z,61.93
2023-05-07T17:34:19.755Z,60.72
2023-05-07T17:36:49.098Z,58.82
2023-05-07T17:39:16.706Z,59.44
2023-05-07T17:41:44.379Z,61.47
2023-05-07T17:44:12.042Z,59.62
2023-05-07T17:46:39.865Z,61.98
2023-05-07T17:49:07.523Z,60.96
2023-05-07T17:51:49.662Z,61.46
2023-05-07T17:54:34.514Z,61.81
2023-05-07T17:57:02.176Z,61.98
2023-05-07T17:59:29.932Z,62.33
2023-05-07T18:01:57.799Z,60.56
2023-05-07T18:04:26.863Z,59.68
2023-05-07T18:06:54.585Z,62.05
2023-05-07T18:09:22.316Z,58.62
2023-05-07T18:11:51.379Z,58.97
2023-05-07T18:14:24.004Z,61.52
2023-05-07T18:16:51.962Z,59.84
2023-05-07T18:19:19.885Z,58.24
2023-05-07T18:21:47.721Z,59.10
2023-05-07T18:24:17.782Z,59.85
2023-05-07T18:26:45.526Z,61.44
2023-05-07T18:29:14.743Z,59.89
2023-05-07T18:31:42.507Z,55.12
2023-05-07T18:34:31.393Z,56.46
2023-05-07T18:36:59.521Z,57.48
2023-05-07T18:39:27.381Z,58.14
2023-05-07T18:41:55.144Z,58.07
2023-05-07T18:44:24.202Z,57.26
2023-05-07T18:46:51.904Z,60.84
2023-05-07T18:49:19.713Z,62.85
2023-05-07T18:51:47.397Z,64.63
2023-05-07T18:54:15.015Z,70.67
2023-05-07T18:56:43.272Z,67.69
2023-05-07T18:59:11.058Z,71.88
2023-05-07T19:01:40.197Z,68.24
2023-05-07T19:04:08.088Z,67.59
2023-05-07T19:06:35.791Z,74.73
2023-05-07T19:09:04.943Z,70.56
2023-05-07T19:11:32.565Z,77.10
2023-05-07T19:14:01.717Z,76.44
2023-05-07T19:16:30.724Z,73.98
2023-05-07T19:19:00.101Z,75.66
2023-05-07T19:21:28.626Z,76.59
2023-05-07T19:23:57.441Z,79.08
2023-05-07T19:26:26.503Z,79.25
2023-05-07T19:29:11.773Z,73.01
2023-05-07T19:31:41.915Z,72.87
2023-05-07T19:34:13.248Z,73.65
2023-05-07T19:36:41.356Z,78.70
2023-05-07T19:39:09.055Z,77.94
2023-05-07T19:41:37.052Z,78.11
2023-05-07T19:44:05.093Z,78.50
2023-05-07T19:46:32.880Z,79.81
2023-05-07T19:49:01.384Z,79.83
2023-05-07T19:51:32.584Z,79.24
2023-05-07T19:54:00.271Z,75.03
2023-05-07T19:56:27.992Z,84.82
2023-05-07T19:58:55.677Z,83.43
2023-05-07T20:01:23.422Z,78.69
2023-05-07T20:03:51.492Z,76.08
2023-05-07T20:06:19.421Z,77.56
2023-05-07T20:08:48.527Z,83.18
2023-05-07T20:11:16.164Z,79.65
2023-05-07T20:13:43.934Z,77.18
2023-05-07T20:16:11.762Z,82.11
2023-05-07T20:18:39.449Z,85.34
2023-05-07T20:21:07.207Z,74.18
2023-05-07T20:23:34.863Z,75.25
2023-05-07T20:26:03.999Z,78.48
2023-05-07T20:28:31.882Z,78.12
2023-05-07T20:30:59.509Z,74.09
2023-05-07T20:36:19.103Z,71.60
2023-05-07T20:38:46.840Z,74.86
2023-05-07T20:41:16.402Z,78.84
2023-05-07T20:43:44.252Z,74.22
2023-05-07T20:46:12.262Z,75.72
2023-05-07T20:48:39.957Z,73.38
2023-05-07T20:51:10.416Z,71.98
2023-05-07T20:53:40.603Z,77.81
2023-05-07T20:56:08.323Z,75.13
2023-05-07T20:58:37.860Z,72.13
2023-05-07T21:01:06.796Z,74.46
2023-05-07T21:03:34.569Z,76.75
2023-05-07T21:06:03.118Z,73.21
2023-05-07T21:08:31.039Z,75.45
2023-05-07T21:10:59.229Z,74.70
2023-05-07T21:13:27.002Z,76.19
2023-05-07T21:15:56.082Z,76.23
2023-05-07T21:18:26.703Z,74.45
2023-05-07T21:20:54.372Z,72.47
2023-05-07T21:23:22.278Z,75.57
2023-05-07T21:25:51.788Z,75.94
2023-05-07T21:28:19.465Z,80.48
2023-05-07T21:30:47.088Z,79.75
2023-05-07T21:33:16.335Z,76.70
2023-05-07T21:35:44.070Z,80.01
2023-05-07T21:38:12.560Z,76.88
2023-05-07T21:40:40.518Z,76.06
2023-05-07T21:43:08.190Z,72.83
2023-05-07T21:45:35.928Z,74.54
2023-05-07T21:48:03.638Z,71.08
2023-05-07T21:50:33.173Z,70.93
2023-05-07T21:53:01.070Z,71.03
2023-05-07T21:55:28.748Z,70.46
2023-05-07T21:58:05.100Z,74.08
2023-05-07T22:00:34.172Z,76.01
2023-05-07T22:03:01.944Z,71.44
2023-05-07T22:05:29.709Z,73.55
2023-05-07T22:07:58.770Z,74.24
2023-05-07T22:10:26.680Z,74.32
2023-05-07T22:12:54.396Z,71.38
2023-05-07T22:15:22.114Z,72.52
2023-05-07T22:17:49.866Z,70.33
2023-05-07T22:20:17.767Z,73.19
2023-05-07T22:22:47.523Z,71.91
2023-05-07T22:25:18.604Z,71.60
2023-05-07T22:27:46.241Z,71.03
2023-05-07T22:30:14.400Z,74.96
2023-05-07T22:32:43.244Z,75.61
2023-05-07T22:35:11.711Z,66.35
2023-05-07T22:37:39.441Z,70.54
2023-05-07T22:40:08.168Z,68.62
2023-05-07T22:42:37.248Z,75.48
2023-05-07T22:45:05.775Z,78.78
2023-05-07T22:47:33.504Z,75.60
2023-05-07T22:50:01.708Z,74.17
2023-05-07T22:52:29.335Z,76.29
2023-05-07T22:54:57.022Z,76.71
2023-05-07T22:57:24.715Z,72.42
2023-05-07T22:59:56.265Z,72.63
2023-05-07T23:02:24.316Z,72.15
2023-05-07T23:04:52.094Z,74.92
2023-05-07T23:07:20.022Z,74.58
2023-05-07T23:09:47.685Z,70.55
2023-05-07T23:12:15.391Z,67.31
2023-05-07T23:14:43.053Z,70.02
2023-05-07T23:17:12.330Z,66.50
2023-05-07T23:19:40.119Z,71.68
2023-05-07T23:22:07.864Z,79.43
2023-05-07T23:24:35.882Z,71.55
2023-05-07T23:27:06.708Z,73.10
2023-05-07T23:29:34.516Z,70.74
2023-05-07T23:32:02.588Z,71.05
2023-05-07T23:34:31.632Z,68.97
2023-05-07T23:36:59.287Z,69.92
2023-05-07T23:39:27.169Z,66.46
2023-05-07T23:41:55.147Z,63.76
2023-05-07T23:44:22.831Z,69.55
2023-05-07T23:46:50.977Z,70.10
2023-05-07T23:49:18.661Z,68.25
2023-05-07T23:51:47.713Z,68.04
2023-05-07T23:54:15.794Z,68.42
2023-05-07T23:56:43.471Z,66.21
2023-05-07T23:59:11.201Z,68.68
